Time;durP1;ratioP1;P1;durP2;ratioP2;P2;SDS_P1;SDS_P2;PMS_P1;PMS_P2;Temp;Humidity;BMP_temperature;BMP_pressure;BME280_temperature;BME280_humidity;BME280_pressure;Samples;Min_cycle;Max_cycle;Signal;HPM_P1;HPM_P2
2020/12/01 00:01:19;;;;;;;64.50;22.83;;;1.00;99.90;;;;;;5060722;28;20294;-67
2020/12/01 00:03:46;;;;;;;69.17;23.93;;;1.10;99.90;;;;;;5044993;28;20263;-66
2020/12/01 00:06:13;;;;;;;65.30;22.73;;;1.10;99.90;;;;;;5021033;28;20203;-67
2020/12/01 00:08:40;;;;;;;68.83;24.23;;;1.10;99.90;;;;;;5018526;28;20216;-67
2020/12/01 00:11:07;;;;;;;57.20;21.40;;;1.20;99.90;;;;;;4974170;28;20204;-68
2020/12/01 00:13:34;;;;;;;68.93;23.53;;;1.10;99.90;;;;;;4965896;28;20236;-67
2020/12/01 00:16:00;;;;;;;62.27;23.27;;;1.10;99.90;;;;;;4967581;28;20212;-67
2020/12/01 00:18:27;;;;;;;60.20;22.00;;;1.10;99.90;;;;;;4966117;28;20216;-67
2020/12/01 00:20:55;;;;;;;55.57;21.13;;;1.00;99.90;;;;;;4961340;28;20764;-67
2020/12/01 00:23:22;;;;;;;55.07;19.47;;;0.90;99.90;;;;;;4929192;29;20213;-68
2020/12/01 00:25:48;;;;;;;53.17;17.73;;;0.80;99.90;;;;;;4955592;28;20217;-68
2020/12/01 00:28:15;;;;;;;50.30;19.03;;;0.70;99.90;;;;;;4949001;29;20252;-67
2020/12/01 00:30:42;;;;;;;50.20;18.13;;;0.60;99.90;;;;;;4943290;28;20205;-68
2020/12/01 00:33:10;;;;;;;50.33;19.43;;;0.50;99.90;;;;;;4948384;29;20720;-67
2020/12/01 00:35:37;;;;;;;60.90;20.87;;;0.40;99.90;;;;;;4965246;28;20263;-68
2020/12/01 00:38:05;;;;;;;62.03;22.20;;;0.40;99.90;;;;;;4969646;28;20212;-69
2020/12/01 00:40:32;;;;;;;57.47;19.77;;;0.30;99.90;;;;;;4973243;28;20215;-68
2020/12/01 00:42:58;;;;;;;55.17;20.37;;;0.20;99.90;;;;;;5016519;28;20272;-68
2020/12/01 00:45:25;;;;;;;55.90;20.37;;;0.20;99.90;;;;;;5042084;28;20689;-66
2020/12/01 00:47:52;;;;;;;50.23;18.40;;;0.10;99.90;;;;;;5036645;28;20297;-67
2020/12/01 00:50:22;;;;;;;55.77;18.97;;;0.10;99.90;;;;;;5032419;28;20190;-66
2020/12/01 00:52:49;;;;;;;51.63;18.80;;;0.00;99.90;;;;;;5038223;28;20194;-67
2020/12/01 00:55:17;;;;;;;46.13;17.23;;;-0.10;99.90;;;;;;5047512;28;20281;-67
2020/12/01 00:57:44;;;;;;;52.17;17.97;;;-0.10;99.90;;;;;;5030169;28;20293;-67
2020/12/01 01:00:15;;;;;;;44.50;17.03;;;-0.20;99.90;;;;;;5025783;28;20884;-66
2020/12/01 01:03:01;;;;;;;57.07;20.00;;;-0.20;99.90;;;;;;5023984;28;20205;-66
2020/12/01 01:05:27;;;;;;;47.67;17.43;;;-0.20;99.90;;;;;;5026883;28;20218;-67
2020/12/01 01:07:54;;;;;;;47.40;17.90;;;-0.30;99.90;;;;;;5007936;28;20199;-67
2020/12/01 01:10:25;;;;;;;49.47;17.97;;;-0.30;99.90;;;;;;4998833;28;20208;-67
2020/12/01 01:12:52;;;;;;;47.30;17.87;;;-0.40;99.90;;;;;;5001795;28;20212;-66
2020/12/01 01:15:23;;;;;;;49.37;17.60;;;-0.40;99.90;;;;;;5006550;28;20681;-67
2020/12/01 01:17:49;;;;;;;46.03;15.90;;;-0.40;99.90;;;;;;4998068;28;20249;-67
2020/12/01 01:20:16;;;;;;;40.73;14.97;;;-0.50;99.90;;;;;;5004412;28;20238;-67
2020/12/01 01:22:43;;;;;;;47.53;17.73;;;-0.50;99.90;;;;;;4999339;28;20212;-67
2020/12/01 01:25:09;;;;;;;46.70;17.60;;;-0.50;99.90;;;;;;5004870;28;20621;-67
2020/12/01 01:27:37;;;;;;;46.23;17.30;;;-0.50;99.90;;;;;;4994799;28;20215;-67
2020/12/01 01:30:04;;;;;;;53.80;18.37;;;-0.60;99.90;;;;;;5043567;28;20221;-67
2020/12/01 01:32:31;;;;;;;49.00;17.97;;;-0.60;99.90;;;;;;5016959;28;20233;-66
2020/12/01 01:34:58;;;;;;;45.80;17.27;;;-0.50;99.90;;;;;;5023180;28;20206;-66
2020/12/01 01:37:25;;;;;;;43.90;16.77;;;-0.60;99.90;;;;;;5020014;28;20639;-68
2020/12/01 01:39:51;;;;;;;40.87;16.30;;;-0.60;99.90;;;;;;5083412;28;20224;-66
2020/12/01 01:42:18;;;;;;;47.30;17.47;;;-0.60;99.90;;;;;;5090574;28;20337;-66
2020/12/01 01:44:46;;;;;;;45.00;17.20;;;-0.70;99.90;;;;;;5090846;28;20745;-66
2020/12/01 01:47:21;;;;;;;38.40;14.57;;;-0.60;99.90;;;;;;5089646;28;20196;-67
2020/12/01 01:49:51;;;;;;;37.63;14.20;;;-0.70;99.90;;;;;;5069892;28;20204;-67
2020/12/01 01:52:23;;;;;;;37.93;14.60;;;-0.70;99.90;;;;;;5070730;28;20280;-67
2020/12/01 01:54:55;;;;;;;37.67;14.23;;;-0.80;99.90;;;;;;5080682;28;20212;-68
2020/12/01 01:57:22;;;;;;;42.47;16.07;;;-0.80;99.90;;;;;;5077365;28;20196;-67
2020/12/01 01:59:50;;;;;;;48.47;16.53;;;-0.80;99.90;;;;;;5062762;28;20229;-68
2020/12/01 02:02:17;;;;;;;41.73;16.63;;;-0.80;99.90;;;;;;5049960;28;20297;-67
2020/12/01 02:04:44;;;;;;;45.37;17.13;;;-0.80;99.90;;;;;;5048329;28;20209;-67
2020/12/01 02:07:11;;;;;;;41.33;16.53;;;-0.90;99.90;;;;;;5040946;28;20553;-67
2020/12/01 02:09:42;;;;;;;40.13;15.20;;;-0.90;99.90;;;;;;5049050;28;20217;-67
2020/12/01 02:12:12;;;;;;;42.10;16.53;;;-0.90;99.90;;;;;;5041475;28;20197;-67
2020/12/01 02:14:44;;;;;;;38.33;15.30;;;-0.90;99.90;;;;;;5049346;28;20213;-67
2020/12/01 02:17:20;;;;;;;41.20;15.27;;;-1.00;99.90;;;;;;5042719;28;20294;-68
2020/12/01 02:19:47;;;;;;;38.40;14.77;;;-1.00;99.90;;;;;;5044798;28;20357;-67
2020/12/01 02:22:17;;;;;;;39.40;14.47;;;-1.00;99.90;;;;;;5069656;28;20196;-67
2020/12/01 02:24:44;;;;;;;34.40;13.70;;;-1.00;99.90;;;;;;5048807;28;20194;-67
2020/12/01 02:27:13;;;;;;;30.67;12.20;;;-1.00;99.90;;;;;;5009658;28;20226;-67
2020/12/01 02:29:44;;;;;;;34.87;13.10;;;-1.00;99.90;;;;;;5009931;28;20223;-67
2020/12/01 02:32:10;;;;;;;33.73;12.50;;;-1.10;99.90;;;;;;5039529;28;20609;-67
2020/12/01 02:34:42;;;;;;;34.77;13.57;;;-1.10;99.90;;;;;;5021882;28;20203;-67
2020/12/01 02:37:10;;;;;;;35.27;13.50;;;-1.10;99.90;;;;;;5025925;28;20305;-67
2020/12/01 02:39:36;;;;;;;28.53;12.43;;;-1.10;99.90;;;;;;4996619;28;20199;-67
2020/12/01 02:42:08;;;;;;;27.73;12.50;;;-1.10;99.90;;;;;;5007525;28;20214;-68
2020/12/01 02:44:36;;;;;;;35.77;14.07;;;-1.10;99.90;;;;;;5009167;28;20732;-67
2020/12/01 02:47:05;;;;;;;36.33;12.70;;;-1.10;99.90;;;;;;5006067;28;20215;-67
2020/12/01 02:49:32;;;;;;;32.67;12.40;;;-1.10;99.90;;;;;;5007504;28;20242;-68
2020/12/01 02:51:59;;;;;;;29.43;12.47;;;-1.10;99.90;;;;;;5009347;28;20211;-67
2020/12/01 02:54:26;;;;;;;31.87;12.70;;;-1.10;99.90;;;;;;5008731;28;20280;-67
2020/12/01 02:56:53;;;;;;;31.70;13.13;;;-1.10;99.90;;;;;;5026868;28;20203;-66
2020/12/01 02:59:19;;;;;;;36.20;13.83;;;-1.10;99.90;;;;;;5060164;28;20236;-67
2020/12/01 03:01:47;;;;;;;33.90;14.03;;;-1.10;99.90;;;;;;5069019;28;20228;-67
2020/12/01 03:04:14;;;;;;;30.57;12.43;;;-1.10;99.90;;;;;;5066899;28;20204;-67
2020/12/01 03:06:41;;;;;;;37.00;14.50;;;-1.10;99.90;;;;;;5062909;28;20213;-67
2020/12/01 03:09:11;;;;;;;43.33;15.50;;;-1.10;99.90;;;;;;5067867;28;20212;-67
2020/12/01 03:11:37;;;;;;;36.53;14.97;;;-1.10;99.90;;;;;;5068756;28;20735;-67
2020/12/01 03:14:04;;;;;;;31.83;12.97;;;-1.10;99.90;;;;;;5068232;28;20695;-67
2020/12/01 03:16:31;;;;;;;34.70;14.13;;;-1.10;99.90;;;;;;5071236;28;20241;-68
2020/12/01 03:18:59;;;;;;;32.27;13.50;;;-1.10;99.90;;;;;;5087456;28;20214;-67
2020/12/01 03:21:26;;;;;;;34.27;13.23;;;-1.10;99.90;;;;;;5088304;28;20220;-67
2020/12/01 03:23:52;;;;;;;36.67;13.50;;;-1.10;99.90;;;;;;5047439;28;20217;-66
2020/12/01 03:26:19;;;;;;;33.30;13.80;;;-1.10;99.90;;;;;;5048385;28;20208;-67
2020/12/01 03:28:47;;;;;;;30.30;11.90;;;-1.10;99.90;;;;;;5048246;28;20229;-66
2020/12/01 03:31:16;;;;;;;33.53;13.83;;;-1.10;99.90;;;;;;5048479;28;20213;-67
2020/12/01 03:33:43;;;;;;;36.53;14.30;;;-1.10;99.90;;;;;;5045848;28;20224;-67
2020/12/01 03:36:10;;;;;;;38.20;14.90;;;-1.10;99.90;;;;;;5050794;28;20207;-66
2020/12/01 03:38:37;;;;;;;39.73;15.20;;;-1.10;99.90;;;;;;5067513;28;20213;-66
2020/12/01 03:41:04;;;;;;;38.03;15.30;;;-1.10;99.90;;;;;;5058749;28;20220;-66
2020/12/01 03:43:31;;;;;;;38.80;14.87;;;-1.10;99.90;;;;;;5063926;28;20596;-67
2020/12/01 03:45:58;;;;;;;37.30;14.97;;;-1.10;99.90;;;;;;5068273;28;20252;-67
2020/12/01 03:48:25;;;;;;;37.40;15.07;;;-1.10;99.90;;;;;;5065188;28;20221;-67
2020/12/01 03:50:51;;;;;;;44.83;17.23;;;-1.10;99.90;;;;;;5067659;28;20196;-67
2020/12/01 03:53:19;;;;;;;41.43;16.17;;;-1.10;99.90;;;;;;5047356;28;20202;-66
2020/12/01 03:55:45;;;;;;;36.13;15.40;;;-1.10;99.90;;;;;;5066005;28;20204;-67
2020/12/01 03:58:12;;;;;;;36.97;14.53;;;-1.10;99.90;;;;;;5071009;28;20212;-67
2020/12/01 04:00:39;;;;;;;35.87;13.73;;;-1.10;99.90;;;;;;5088159;28;20216;-67
2020/12/01 04:03:05;;;;;;;38.10;14.47;;;-1.10;99.90;;;;;;5086430;28;20214;-66
2020/12/01 04:05:32;;;;;;;35.27;14.43;;;-0.90;99.90;;;;;;5047578;28;20201;-66
2020/12/01 04:07:59;;;;;;;34.93;13.07;;;-1.10;99.90;;;;;;5044586;28;20696;-66
2020/12/01 04:10:27;;;;;;;35.33;13.53;;;-1.20;99.90;;;;;;5044434;28;20205;-66
2020/12/01 04:12:55;;;;;;;37.33;15.37;;;-1.20;99.90;;;;;;5042701;28;20681;-67
2020/12/01 04:15:24;;;;;;;39.80;14.70;;;-1.20;99.90;;;;;;5047932;28;20308;-67
2020/12/01 04:17:50;;;;;;;36.80;14.20;;;-1.20;99.90;;;;;;5040527;28;20557;-66
2020/12/01 04:20:17;;;;;;;36.63;14.07;;;-1.20;99.90;;;;;;5046617;28;20233;-67
2020/12/01 04:22:45;;;;;;;34.70;13.67;;;-1.20;99.90;;;;;;5037894;28;20206;-67
2020/12/01 04:25:13;;;;;;;32.03;13.07;;;-1.20;99.90;;;;;;5046826;28;20580;-68
2020/12/01 04:27:41;;;;;;;32.37;13.33;;;-1.20;99.90;;;;;;5039959;28;20276;-68
2020/12/01 04:30:08;;;;;;;31.30;13.40;;;-1.20;99.90;;;;;;5038481;28;20225;-68
2020/12/01 04:32:35;;;;;;;31.10;12.03;;;-1.20;99.90;;;;;;5030268;28;20215;-68
2020/12/01 04:35:02;;;;;;;30.13;11.63;;;-1.20;99.90;;;;;;5030609;28;20642;-65
2020/12/01 04:37:29;;;;;;;28.53;11.23;;;-1.20;99.90;;;;;;5044383;28;20221;-66
2020/12/01 04:39:56;;;;;;;24.47;10.27;;;-1.20;99.90;;;;;;5013600;28;20199;-67
2020/12/01 04:42:23;;;;;;;22.97;9.20;;;-1.20;99.90;;;;;;5059349;28;20205;-67
2020/12/01 04:44:57;;;;;;;23.33;11.17;;;-1.10;99.90;;;;;;5051116;28;20676;-67
2020/12/01 04:47:34;;;;;;;27.47;11.63;;;-1.20;99.90;;;;;;5031723;28;20672;-67
2020/12/01 04:50:05;;;;;;;31.53;11.70;;;-1.10;99.90;;;;;;5045715;28;20644;-67
2020/12/01 04:52:58;;;;;;;24.10;10.17;;;-1.20;99.90;;;;;;5040587;28;20245;-67
2020/12/01 04:55:59;;;;;;;27.20;11.00;;;-1.20;99.90;;;;;;5029260;28;20333;-67
2020/12/01 04:58:56;;;;;;;31.10;12.13;;;-1.20;99.90;;;;;;5022665;28;20214;-67
2020/12/01 05:02:02;;;;;;;26.67;11.07;;;-1.20;99.90;;;;;;4978017;28;20670;-67
2020/12/01 05:04:37;;;;;;;37.27;12.27;;;-1.20;99.90;;;;;;4970301;28;20275;-67
2020/12/01 05:07:18;;;;;;;34.03;11.97;;;-1.20;99.90;;;;;;4953130;29;20308;-65
2020/12/01 05:09:47;;;;;;;42.60;13.60;;;-1.20;99.90;;;;;;4952409;29;20307;-67
2020/12/01 05:12:19;;;;;;;43.83;14.67;;;-1.10;99.90;;;;;;4991967;28;20216;-66
2020/12/01 05:14:53;;;;;;;34.17;12.07;;;-1.20;99.90;;;;;;4991417;28;20687;-68
2020/12/01 05:17:46;;;;;;;35.03;11.53;;;-1.20;99.90;;;;;;4971674;28;20201;-66
2020/12/01 05:20:13;;;;;;;30.40;9.97;;;-1.20;99.90;;;;;;4987732;28;20335;-67
2020/12/01 05:22:47;;;;;;;32.77;11.07;;;-1.20;99.90;;;;;;4990040;28;20718;-67
2020/12/01 05:25:22;;;;;;;34.10;11.43;;;-1.20;99.90;;;;;;4983811;28;20694;-66
2020/12/01 05:27:50;;;;;;;28.30;10.33;;;-1.20;99.90;;;;;;5000253;28;20203;-66
2020/12/01 05:30:21;;;;;;;28.27;10.30;;;-1.20;99.90;;;;;;5006026;28;20254;-66
2020/12/01 05:32:54;;;;;;;33.10;11.37;;;-1.20;99.90;;;;;;4978488;28;20208;-66
2020/12/01 05:35:25;;;;;;;34.93;11.37;;;-1.20;99.90;;;;;;4971672;28;20212;-67
2020/12/01 05:37:58;;;;;;;31.50;12.63;;;-1.20;99.90;;;;;;4970772;28;20215;-66
2020/12/01 05:40:27;;;;;;;35.43;11.53;;;-1.20;99.90;;;;;;4967793;28;20227;-66
2020/12/01 05:42:54;;;;;;;27.90;10.20;;;-1.20;99.90;;;;;;4963395;28;20212;-66
2020/12/01 05:45:26;;;;;;;28.67;10.83;;;-1.20;99.90;;;;;;5004179;28;20207;-66
2020/12/01 05:48:16;;;;;;;31.90;11.60;;;-1.30;99.90;;;;;;4982774;28;20295;-66
2020/12/01 05:50:53;;;;;;;31.10;12.33;;;-1.30;99.90;;;;;;4956019;28;20692;-67
2020/12/01 05:53:20;;;;;;;30.83;12.93;;;-1.30;99.90;;;;;;4986238;28;20226;-67
2020/12/01 05:56:05;;;;;;;33.07;12.63;;;-1.30;99.90;;;;;;4991238;28;20663;-67
2020/12/01 05:58:41;;;;;;;32.93;11.97;;;-1.30;99.90;;;;;;4990323;28;20583;-66
2020/12/01 06:01:08;;;;;;;24.57;10.90;;;-1.30;99.90;;;;;;4990478;28;20241;-67
2020/12/01 06:03:59;;;;;;;33.43;12.20;;;-1.30;99.90;;;;;;5003603;28;20218;-67
2020/12/01 06:06:33;;;;;;;40.60;14.23;;;-1.30;99.90;;;;;;5029477;28;20222;-67
2020/12/01 06:09:07;;;;;;;34.83;11.90;;;-1.30;99.90;;;;;;5026678;28;20709;-66
2020/12/01 06:11:38;;;;;;;35.83;12.67;;;-1.30;99.90;;;;;;5029569;28;20221;-66
2020/12/01 06:14:15;;;;;;;36.03;12.97;;;-1.30;99.90;;;;;;5029705;28;20241;-67
2020/12/01 06:16:49;;;;;;;30.33;11.87;;;-1.30;99.90;;;;;;5027896;28;20216;-66
2020/12/01 06:19:26;;;;;;;32.03;11.60;;;-1.40;99.90;;;;;;5040467;28;20235;-67
2020/12/01 06:22:21;;;;;;;35.47;12.80;;;-1.40;99.90;;;;;;5075317;28;20365;-66
2020/12/01 06:25:11;;;;;;;39.00;14.03;;;-1.40;99.90;;;;;;5065777;28;20237;-67
2020/12/01 06:28:10;;;;;;;31.87;13.13;;;-1.40;99.90;;;;;;5068948;28;20698;-67
2020/12/01 06:31:04;;;;;;;35.17;12.57;;;-1.40;99.90;;;;;;5043137;28;20231;-66
2020/12/01 06:34:09;;;;;;;34.80;14.50;;;-1.40;99.90;;;;;;5033510;28;20697;-66
2020/12/01 06:37:21;;;;;;;40.30;15.47;;;-1.40;99.90;;;;;;5040877;28;20213;-66
2020/12/01 06:39:54;;;;;;;36.77;14.90;;;-1.40;99.90;;;;;;5039502;28;20223;-67
2020/12/01 06:42:26;;;;;;;33.33;14.63;;;-1.40;99.90;;;;;;5047888;28;20230;-66
2020/12/01 06:45:01;;;;;;;35.20;14.03;;;-1.40;99.90;;;;;;5049419;28;20576;-67
2020/12/01 06:47:31;;;;;;;34.67;15.27;;;-1.40;99.90;;;;;;5036573;28;20211;-67
2020/12/01 06:50:04;;;;;;;34.93;13.70;;;-1.40;99.90;;;;;;5048834;28;20214;-68
2020/12/01 06:52:31;;;;;;;33.50;14.07;;;-1.40;99.90;;;;;;5048685;28;20216;-65
2020/12/01 06:54:59;;;;;;;32.83;13.13;;;-1.30;99.90;;;;;;5043712;28;20581;-67
2020/12/01 06:57:33;;;;;;;31.53;11.90;;;-1.30;99.90;;;;;;5028287;28;20206;-66
2020/12/01 07:00:01;;;;;;;33.60;12.73;;;-1.30;99.90;;;;;;5029253;28;20245;-66
2020/12/01 07:02:32;;;;;;;31.87;12.13;;;-1.20;99.90;;;;;;5033658;28;20221;-66
2020/12/01 07:05:08;;;;;;;36.80;12.40;;;-1.20;99.90;;;;;;5034834;28;20214;-66
2020/12/01 07:07:37;;;;;;;36.43;14.00;;;-1.20;99.90;;;;;;5034924;28;20214;-66
2020/12/01 07:10:21;;;;;;;38.97;14.73;;;-1.10;99.90;;;;;;5031434;28;20198;-66
2020/12/01 07:12:53;;;;;;;29.37;13.00;;;-1.10;99.90;;;;;;5048277;28;20735;-66
2020/12/01 07:15:29;;;;;;;31.30;12.93;;;-1.00;99.90;;;;;;5064371;28;20197;-66
2020/12/01 07:18:05;;;;;;;38.10;14.40;;;-1.00;99.90;;;;;;5053908;28;20197;-66
2020/12/01 07:20:44;;;;;;;42.33;17.37;;;-1.00;99.90;;;;;;5062330;28;20601;-65
2020/12/01 07:23:28;;;;;;;39.63;16.10;;;-0.90;99.90;;;;;;5044471;28;20201;-66
2020/12/01 07:26:30;;;;;;;40.00;14.70;;;-0.90;99.90;;;;;;5048177;28;20280;-66
2020/12/01 07:29:19;;;;;;;38.97;15.30;;;-0.90;99.90;;;;;;5032772;28;20232;-66
2020/12/01 07:31:47;;;;;;;35.90;15.87;;;-0.80;99.90;;;;;;5028224;28;20202;-66
2020/12/01 07:34:24;;;;;;;37.73;15.57;;;-0.80;99.90;;;;;;5035394;28;20716;-65
2020/12/01 07:36:54;;;;;;;41.50;15.03;;;-0.80;99.90;;;;;;5035230;28;20215;-65
2020/12/01 07:39:24;;;;;;;43.93;16.67;;;-0.70;99.90;;;;;;5024245;28;20202;-65
2020/12/01 07:41:55;;;;;;;45.33;16.97;;;-0.70;99.90;;;;;;5023942;28;20249;-66
2020/12/01 07:44:24;;;;;;;47.00;16.67;;;-0.60;99.90;;;;;;5028148;28;20198;-65
2020/12/01 07:47:05;;;;;;;39.20;16.13;;;-0.60;99.90;;;;;;5032254;28;20217;-66
2020/12/01 07:49:33;;;;;;;38.73;15.97;;;-0.50;99.90;;;;;;5026449;28;20214;-66
2020/12/01 07:52:07;;;;;;;40.70;15.00;;;-0.50;99.90;;;;;;5013151;28;20211;-66
2020/12/01 07:54:37;;;;;;;35.70;14.60;;;-0.40;99.90;;;;;;5011943;28;20398;-66
2020/12/01 07:57:12;;;;;;;35.37;14.30;;;-0.40;99.90;;;;;;5012834;28;20203;-66
2020/12/01 07:59:45;;;;;;;35.30;13.80;;;-0.30;99.90;;;;;;5023576;28;20202;-66
2020/12/01 08:02:13;;;;;;;36.90;14.27;;;-0.20;99.90;;;;;;5031977;28;20233;-66
2020/12/01 08:04:40;;;;;;;31.27;13.33;;;-0.20;99.90;;;;;;5069598;28;20234;-67
2020/12/01 08:07:07;;;;;;;30.33;12.30;;;-0.10;99.90;;;;;;5050753;28;20205;-66
2020/12/01 08:09:34;;;;;;;29.40;12.17;;;-0.10;99.90;;;;;;5010740;28;20704;-67
2020/12/01 08:12:04;;;;;;;34.27;13.90;;;0.00;99.90;;;;;;5035908;28;20205;-68
2020/12/01 08:14:31;;;;;;;31.90;12.67;;;0.00;99.90;;;;;;5017229;28;20201;-67
2020/12/01 08:17:04;;;;;;;26.47;11.73;;;0.10;99.90;;;;;;5019739;28;20217;-68
2020/12/01 08:19:32;;;;;;;39.00;13.80;;;0.20;99.90;;;;;;4972222;28;20509;-67
2020/12/01 08:22:00;;;;;;;33.43;12.70;;;0.20;99.90;;;;;;4975871;28;20370;-66
2020/12/01 08:24:30;;;;;;;30.53;12.30;;;0.30;99.90;;;;;;4977334;28;20303;-67
2020/12/01 08:27:05;;;;;;;30.47;12.27;;;0.30;99.90;;;;;;4977703;28;20208;-67
2020/12/01 08:29:36;;;;;;;32.07;13.00;;;0.40;99.90;;;;;;4976689;28;21551;-67
2020/12/01 08:32:12;;;;;;;34.37;13.90;;;0.50;99.90;;;;;;4944605;29;20205;-67
2020/12/01 08:34:46;;;;;;;29.63;13.30;;;0.50;99.90;;;;;;4944786;29;20217;-68
2020/12/01 08:37:26;;;;;;;30.87;12.17;;;0.60;99.90;;;;;;4946652;29;20216;-68
2020/12/01 08:40:06;;;;;;;30.30;12.53;;;0.60;99.90;;;;;;4955978;28;20235;-68
2020/12/01 08:42:47;;;;;;;24.43;10.80;;;0.70;99.90;;;;;;4985008;28;20971;-67
2020/12/01 08:45:44;;;;;;;30.53;11.67;;;0.70;99.90;;;;;;5015983;28;20198;-67
2020/12/01 08:48:29;;;;;;;36.27;14.47;;;0.80;99.90;;;;;;4981049;28;20267;-66
2020/12/01 08:51:13;;;;;;;33.83;13.57;;;0.80;99.90;;;;;;5010128;28;20210;-67
2020/12/01 08:53:51;;;;;;;40.07;15.20;;;0.90;99.90;;;;;;5020055;28;20225;-67
2020/12/01 08:56:54;;;;;;;39.40;15.37;;;0.90;99.90;;;;;;5017399;28;20198;-67
2020/12/01 08:59:27;;;;;;;41.40;16.37;;;0.90;99.90;;;;;;5018867;28;20691;-68
2020/12/01 09:02:00;;;;;;;46.90;18.20;;;0.90;99.90;;;;;;4995066;28;20272;-66
2020/12/01 09:04:31;;;;;;;40.93;16.07;;;1.00;99.90;;;;;;5002375;28;20693;-66
2020/12/01 09:07:08;;;;;;;38.17;14.97;;;1.00;99.90;;;;;;4999259;28;20202;-66
2020/12/01 09:09:35;;;;;;;36.57;14.53;;;1.00;99.90;;;;;;4994977;28;20235;-67
2020/12/01 09:12:25;;;;;;;33.83;13.57;;;1.00;99.90;;;;;;4998123;28;20207;-67
2020/12/01 09:17:44;;;;;;;34.87;14.30;;;1.10;99.90;;;;;;4996764;28;20207;-67
2020/12/01 09:20:47;;;;;;;42.30;15.03;;;1.20;99.90;;;;;;5013230;28;20703;-67
2020/12/01 09:23:18;;;;;;;38.03;14.60;;;1.20;99.90;;;;;;5014436;28;20202;-67
2020/12/01 09:25:46;;;;;;;31.43;12.50;;;1.30;99.90;;;;;;5018433;28;20262;-67
2020/12/01 09:28:17;;;;;;;36.08;15.15;;;1.30;99.90;;;;;;5002523;28;20435;-66
2020/12/01 09:30:45;;;;;;;41.53;18.27;;;1.40;99.90;;;;;;5002523;28;20480;-67
2020/12/01 09:33:15;;;;;;;38.63;17.58;;;1.40;99.90;;;;;;5002086;28;20435;-67
2020/12/01 09:35:43;;;;;;;33.70;15.67;;;1.50;99.90;;;;;;5005697;28;20247;-67
2020/12/01 09:38:10;;;;;;;30.87;13.70;;;1.60;99.90;;;;;;4993321;28;20211;-67
2020/12/01 09:40:37;;;;;;;29.20;13.50;;;1.60;99.90;;;;;;5023458;28;20195;-67
2020/12/01 09:43:11;;;;;;;25.87;12.40;;;1.70;99.90;;;;;;5024463;28;20378;-67
2020/12/01 09:45:40;;;;;;;31.70;13.50;;;1.70;99.90;;;;;;5041254;28;20217;-67
2020/12/01 09:48:08;;;;;;;32.80;14.67;;;1.70;99.90;;;;;;5039393;28;20330;-66
2020/12/01 09:50:39;;;;;;;35.05;16.90;;;1.70;99.90;;;;;;5019911;28;20554;-66
2020/12/01 09:53:19;;;;;;;37.93;15.90;;;1.80;99.90;;;;;;5042702;28;20194;-67
2020/12/01 09:55:55;;;;;;;34.93;14.57;;;1.80;99.90;;;;;;5049882;28;20322;-67
2020/12/01 09:58:52;;;;;;;30.73;13.73;;;1.80;99.90;;;;;;5026750;28;20225;-67
2020/12/01 10:09:34;;;;;;;27.27;12.67;;;1.90;99.90;;;;;;5020568;28;20270;-66
2020/12/01 10:12:27;;;;;;;31.10;12.77;;;1.90;99.90;;;;;;4996741;28;20187;-66
2020/12/01 10:18:07;;;;;;;43.15;19.08;;;2.10;99.90;;;;;;5003573;28;20458;-66
2020/12/01 10:32:13;;;;;;;40.33;15.90;;;2.40;99.90;;;;;;4883467;29;20208;-66
2020/12/01 10:34:53;;;;;;;36.10;14.73;;;2.50;99.90;;;;;;4889640;29;20681;-66
2020/12/01 10:37:20;;;;;;;29.03;12.47;;;2.60;99.90;;;;;;4926795;29;20345;-66
2020/12/01 10:39:47;;;;;;;40.22;16.95;;;2.60;99.90;;;;;;4924394;29;20461;-66
2020/12/01 10:42:15;;;;;;;30.67;13.67;;;2.60;99.90;;;;;;4924249;29;20308;-66
2020/12/01 10:44:43;;;;;;;34.67;12.87;;;2.70;99.90;;;;;;4925620;29;20214;-66
2020/12/01 10:47:10;;;;;;;25.67;10.47;;;2.70;99.90;;;;;;4906537;29;20271;-67
2020/12/01 10:49:37;;;;;;;26.43;11.17;;;2.70;99.90;;;;;;4928324;28;20217;-67
2020/12/01 10:52:04;;;;;;;23.27;10.13;;;2.80;99.90;;;;;;4942839;28;20640;-66
2020/12/01 10:54:31;;;;;;;26.37;11.03;;;2.80;99.90;;;;;;4942768;28;20299;-67
2020/12/01 10:56:58;;;;;;;20.63;9.33;;;2.80;99.90;;;;;;4943858;28;20224;-67
2020/12/01 10:59:26;;;;;;;22.70;9.80;;;2.80;99.90;;;;;;4944973;28;20645;-67
2020/12/01 11:01:53;;;;;;;27.00;11.70;;;2.80;99.90;;;;;;4907845;29;20222;-67
2020/12/01 11:04:24;;;;;;;28.93;10.40;;;2.80;99.90;;;;;;5401088;23;20588;-67
2020/12/01 11:06:51;;;;;;;24.87;10.60;;;2.90;99.90;;;;;;4992411;28;20633;-68
2020/12/01 11:09:17;;;;;;;25.83;9.87;;;2.90;99.90;;;;;;4999846;28;20492;-67
2020/12/01 11:11:44;;;;;;;25.73;10.37;;;2.90;99.90;;;;;;5004793;28;20712;-68
2020/12/01 11:14:11;;;;;;;25.23;10.17;;;2.90;99.90;;;;;;5004958;28;20267;-67
2020/12/01 11:16:39;;;;;;;27.00;10.60;;;2.90;99.90;;;;;;4998057;28;20329;-67
2020/12/01 11:19:06;;;;;;;21.93;9.67;;;2.90;99.90;;;;;;5004367;28;20521;-67
2020/12/01 11:21:34;;;;;;;25.33;9.93;;;2.90;99.90;;;;;;5000187;28;20670;-67
2020/12/01 11:24:01;;;;;;;26.30;10.27;;;3.00;99.90;;;;;;5001903;28;20209;-67
2020/12/01 11:26:28;;;;;;;26.93;10.73;;;3.00;99.90;;;;;;5005167;28;20278;-67
2020/12/01 11:28:54;;;;;;;33.93;12.20;;;3.00;99.90;;;;;;5003473;28;20213;-66
2020/12/01 11:31:22;;;;;;;31.37;11.07;;;3.00;99.90;;;;;;5005040;28;20210;-66
2020/12/01 11:34:00;;;;;;;22.17;9.77;;;3.00;99.90;;;;;;5020467;28;20560;-67
2020/12/01 11:36:26;;;;;;;24.23;10.03;;;3.00;99.90;;;;;;5017714;28;20207;-66
2020/12/01 11:38:53;;;;;;;24.77;9.43;;;3.10;99.90;;;;;;5020732;28;20232;-67
2020/12/01 11:41:20;;;;;;;26.07;11.47;;;3.10;99.90;;;;;;5019667;28;20652;-66
2020/12/01 11:43:47;;;;;;;25.03;10.83;;;3.10;99.90;;;;;;5004324;28;20334;-67
2020/12/01 11:46:14;;;;;;;25.07;11.43;;;3.20;99.90;;;;;;5001254;28;20219;-67
2020/12/01 11:48:40;;;;;;;23.03;9.87;;;3.10;99.90;;;;;;4968593;28;20269;-67
2020/12/01 11:51:10;;;;;;;23.17;10.63;;;3.20;99.90;;;;;;4963498;28;20277;-66
2020/12/01 11:53:36;;;;;;;26.13;10.40;;;3.20;99.90;;;;;;4964717;28;20211;-67
2020/12/01 11:56:08;;;;;;;27.90;12.03;;;3.10;99.90;;;;;;4944246;28;20640;-68
2020/12/01 11:58:35;;;;;;;28.53;12.00;;;3.20;99.90;;;;;;4903548;29;20210;-67
2020/12/01 12:01:02;;;;;;;27.30;11.17;;;3.20;99.90;;;;;;4908257;29;20221;-68
2020/12/01 12:03:29;;;;;;;26.37;12.00;;;3.20;99.90;;;;;;4912739;29;20262;-67
2020/12/01 12:05:56;;;;;;;23.47;11.00;;;3.10;99.90;;;;;;4871705;29;20330;-67
2020/12/01 12:08:23;;;;;;;28.53;11.90;;;3.10;99.90;;;;;;4874307;29;20212;-67
2020/12/01 12:10:51;;;;;;;25.37;11.10;;;3.20;99.90;;;;;;4884979;29;20420;-67
2020/12/01 12:13:18;;;;;;;28.10;12.07;;;3.10;99.90;;;;;;4875164;29;20226;-67
2020/12/01 12:15:45;;;;;;;34.97;13.53;;;3.10;99.90;;;;;;4892751;29;20214;-67
2020/12/01 12:18:11;;;;;;;29.33;13.37;;;3.10;99.90;;;;;;4889506;29;20215;-67
2020/12/01 12:20:38;;;;;;;29.00;12.53;;;3.10;99.90;;;;;;4903732;29;20276;-66
2020/12/01 12:23:05;;;;;;;27.53;11.87;;;3.10;99.90;;;;;;4909706;29;20234;-67
2020/12/01 12:25:33;;;;;;;32.67;12.10;;;3.10;99.90;;;;;;4913105;29;20206;-67
2020/12/01 12:27:59;;;;;;;30.40;11.87;;;3.10;99.90;;;;;;4940400;28;20209;-67
2020/12/01 12:30:27;;;;;;;24.83;11.33;;;3.10;99.90;;;;;;4981246;28;20212;-66
2020/12/01 12:32:54;;;;;;;25.20;10.57;;;3.10;99.90;;;;;;4989212;28;20214;-67
2020/12/01 12:35:21;;;;;;;21.83;9.33;;;3.10;99.90;;;;;;4973156;28;20203;-67
2020/12/01 12:37:48;;;;;;;22.43;10.03;;;3.10;99.90;;;;;;4977328;28;20553;-66
2020/12/01 12:40:15;;;;;;;19.83;9.30;;;3.10;99.90;;;;;;4979376;28;20362;-67
2020/12/01 12:42:43;;;;;;;20.93;9.00;;;3.10;99.90;;;;;;4971920;28;20234;-68
2020/12/01 12:45:10;;;;;;;26.33;10.32;;;3.10;99.90;;;;;;4964168;28;20481;-67
2020/12/01 12:47:37;;;;;;;23.77;10.47;;;3.10;99.90;;;;;;4940836;28;20617;-68
2020/12/01 12:50:05;;;;;;;26.67;10.87;;;3.10;99.90;;;;;;4941285;28;20248;-67
2020/12/01 12:52:32;;;;;;;25.37;9.80;;;3.10;99.90;;;;;;4940004;29;20706;-66
2020/12/01 12:54:58;;;;;;;21.37;9.80;;;3.10;99.90;;;;;;4942106;29;20216;-67
2020/12/01 12:57:25;;;;;;;22.30;10.27;;;3.10;99.90;;;;;;4937023;29;20233;-66
2020/12/01 12:59:53;;;;;;;20.17;8.67;;;3.10;99.90;;;;;;4936552;29;20207;-67
2020/12/01 13:02:19;;;;;;;24.60;10.70;;;3.10;99.90;;;;;;4913680;29;20226;-67
2020/12/01 13:04:46;;;;;;;24.40;10.60;;;3.10;99.90;;;;;;4922501;29;20699;-66
2020/12/01 13:07:13;;;;;;;25.67;10.67;;;3.10;99.90;;;;;;4922912;29;20517;-67
2020/12/01 13:09:39;;;;;;;25.13;11.43;;;3.00;99.90;;;;;;4918239;29;20297;-66
2020/12/01 13:12:06;;;;;;;24.53;11.10;;;3.10;99.90;;;;;;4924651;29;20614;-67
2020/12/01 13:14:33;;;;;;;28.33;10.67;;;3.00;99.90;;;;;;4919984;29;20600;-67
2020/12/01 13:17:00;;;;;;;23.33;9.70;;;3.00;99.90;;;;;;4934963;29;20239;-67